createdAt,value
2019-01-22T04:00:30.883Z,94.00
2019-01-22T04:03:09.185Z,94.00
2019-01-22T04:05:59.281Z,94.20
2019-01-22T04:08:47.843Z,94.40
2019-01-22T04:11:28.711Z,94.60
2019-01-22T04:14:16.621Z,94.50
2019-01-22T04:17:04.545Z,94.50
2019-01-22T04:19:52.433Z,94.50
2019-01-22T04:22:42.554Z,94.50
2019-01-22T04:25:49.747Z,94.40
2019-01-22T04:28:56.965Z,94.10
2019-01-22T04:32:04.169Z,94.10
2019-01-22T04:35:11.375Z,94.10
2019-01-22T04:38:18.570Z,94.10
2019-01-22T04:41:25.782Z,94.30
2019-01-22T04:44:32.993Z,94.40
2019-01-22T04:47:40.207Z,94.80
2019-01-22T04:50:47.543Z,94.80
2019-01-22T04:53:54.806Z,94.70
2019-01-22T04:57:02.003Z,94.80
2019-01-22T05:00:09.522Z,95.00
2019-01-22T05:03:01.309Z,94.80
2019-01-22T05:06:08.527Z,95.00
2019-01-22T05:09:17.451Z,94.70
2019-01-22T05:12:24.773Z,94.90
2019-01-22T05:15:31.969Z,94.70
2019-01-22T05:18:39.155Z,94.70
2019-01-22T05:21:46.550Z,94.80
2019-01-22T05:24:53.746Z,94.50
2019-01-22T05:27:45.222Z,94.70
2019-01-22T05:30:39.829Z,94.50
2019-01-22T05:33:47.018Z,94.50
2019-01-22T05:36:39.541Z,94.60
2019-01-22T05:39:46.724Z,94.10
2019-01-22T05:42:53.968Z,94.00
2019-01-22T05:46:01.207Z,93.70
2019-01-22T05:49:08.421Z,93.90
2019-01-22T05:52:15.650Z,94.00
2019-01-22T05:55:06.977Z,93.60
2019-01-22T05:58:14.186Z,93.80
2019-01-22T06:01:04.979Z,94.10
2019-01-22T06:04:12.189Z,94.20
2019-01-22T06:07:19.378Z,94.00
2019-01-22T06:10:26.594Z,93.90
2019-01-22T06:13:11.882Z,93.90
2019-01-22T06:16:19.091Z,94.00
2019-01-22T06:19:26.322Z,93.70
2019-01-22T06:22:33.511Z,93.50
2019-01-22T06:25:29.219Z,93.80
2019-01-22T06:28:36.509Z,93.70
2019-01-22T06:31:43.703Z,94.10
2019-01-22T06:34:50.927Z,94.10
2019-01-22T06:37:58.136Z,94.00
2019-01-22T06:40:53.203Z,94.10
2019-01-22T06:44:00.391Z,94.10
2019-01-22T06:47:07.624Z,94.30
2019-01-22T06:50:14.825Z,94.30
2019-01-22T06:53:22.034Z,94.20
2019-01-22T06:56:17.520Z,94.10
2019-01-22T06:59:24.734Z,94.00
2019-01-22T07:02:31.942Z,94.00
2019-01-22T07:05:39.134Z,94.00
2019-01-22T07:08:46.343Z,94.20
2019-01-22T07:11:53.827Z,94.10
2019-01-22T07:14:41.122Z,94.20
2019-01-22T07:17:48.309Z,94.10
2019-01-22T07:20:55.521Z,94.00
2019-01-22T07:23:45.679Z,94.10
2019-01-22T07:26:52.875Z,94.50
2019-01-22T07:30:00.092Z,94.40
2019-01-22T07:33:07.614Z,94.60
2019-01-22T07:36:14.838Z,94.40
2019-01-22T07:39:07.366Z,94.50
2019-01-22T07:42:14.578Z,94.50
2019-01-22T07:45:22.053Z,94.50
2019-01-22T07:48:12.342Z,94.30
2019-01-22T07:51:19.553Z,94.10
2019-01-22T07:54:26.760Z,94.20
2019-01-22T07:57:21.745Z,94.20
2019-01-22T08:00:28.932Z,93.80
2019-01-22T08:03:55.194Z,94.30
2019-01-22T08:07:21.458Z,94.20
2019-01-22T08:10:28.641Z,94.00
2019-01-22T08:13:35.850Z,93.80
2019-01-22T08:16:37.006Z,93.90
2019-01-22T08:19:44.209Z,93.80
2019-01-22T08:22:51.397Z,93.70
2019-01-22T08:25:58.610Z,94.10
2019-01-22T08:28:54.714Z,94.30
2019-01-22T08:32:01.902Z,94.20
2019-01-22T08:35:09.110Z,94.20
2019-01-22T08:38:16.300Z,94.00
2019-01-22T08:41:23.514Z,94.10
2019-01-22T08:44:30.699Z,94.20
2019-01-22T08:47:37.910Z,93.90
2019-01-22T08:50:45.122Z,93.80
2019-01-22T08:53:52.314Z,93.70
2019-01-22T08:56:45.381Z,93.80
2019-01-22T08:59:52.570Z,93.40
2019-01-22T09:02:59.784Z,93.40
2019-01-22T09:06:06.970Z,93.70
2019-01-22T09:09:14.182Z,93.80
2019-01-22T09:12:21.366Z,93.80
2019-01-22T09:15:28.583Z,93.60
2019-01-22T09:18:09.228Z,93.60
2019-01-22T09:21:07.146Z,93.70
2019-01-22T09:23:57.726Z,93.30
2019-01-22T09:27:04.932Z,93.50
2019-01-22T09:30:12.141Z,93.60
2019-01-22T09:33:19.348Z,93.70
2019-01-22T09:36:26.558Z,93.60
2019-01-22T09:39:15.805Z,93.30
2019-01-22T09:42:04.090Z,93.20
2019-01-22T09:44:51.977Z,93.20
2019-01-22T09:47:39.889Z,92.90
2019-01-22T09:50:27.792Z,93.10
2019-01-22T09:53:15.717Z,93.20
2019-01-22T09:56:03.614Z,93.40
2019-01-22T09:58:51.522Z,93.20
2019-01-22T10:01:39.409Z,93.30
2019-01-22T10:04:27.320Z,93.50
2019-01-22T10:07:15.213Z,93.10
2019-01-22T10:10:03.139Z,93.70
2019-01-22T10:12:51.110Z,93.50
2019-01-22T10:15:39.018Z,93.20
2019-01-22T10:18:17.832Z,93.10
2019-01-22T10:21:05.745Z,92.90
2019-01-22T10:23:53.638Z,93.00
2019-01-22T10:26:41.557Z,93.10
2019-01-22T10:29:29.446Z,93.00
2019-01-22T10:32:17.361Z,92.70
2019-01-22T10:38:33.241Z,93.20
2019-01-22T10:41:21.157Z,93.50
2019-01-22T10:44:09.086Z,93.30
2019-01-22T10:46:56.978Z,93.40
2019-01-22T10:49:45.152Z,93.20
2019-01-22T10:52:33.029Z,93.30
2019-01-22T10:55:20.942Z,93.00
2019-01-22T10:58:08.998Z,93.10
2019-01-22T11:00:58.470Z,93.30
2019-01-22T11:03:46.365Z,93.30
2019-01-22T11:09:28.139Z,93.20
2019-01-22T11:12:16.049Z,93.40
2019-01-22T11:15:04.538Z,93.60
2019-01-22T11:17:52.721Z,93.30
2019-01-22T11:20:33.290Z,93.40
2019-01-22T11:23:13.767Z,93.70
2019-01-22T11:25:52.145Z,93.80
2019-01-22T11:28:40.062Z,94.10
2019-01-22T11:31:27.955Z,94.40
2019-01-22T11:34:15.879Z,94.10
2019-01-22T11:37:03.762Z,94.00
2019-01-22T11:39:51.678Z,93.70
2019-01-22T11:42:39.830Z,94.10
2019-01-22T11:45:27.749Z,94.00
2019-01-22T11:48:15.646Z,93.90
2019-01-22T11:51:03.574Z,93.60
2019-01-22T11:53:51.466Z,93.60
2019-01-22T11:56:39.418Z,93.90
2019-01-22T11:59:27.305Z,93.80
2019-01-22T12:02:15.221Z,93.90
2019-01-22T12:05:03.127Z,93.60
2019-01-22T12:07:51.043Z,93.30
2019-01-22T12:10:38.929Z,93.00
2019-01-22T12:13:26.854Z,93.10
2019-01-22T12:16:14.753Z,93.10
2019-01-22T12:19:02.673Z,93.10
2019-01-22T12:21:41.270Z,93.00
2019-01-22T12:24:29.262Z,93.30
2019-01-22T12:27:17.187Z,93.40
2019-01-22T12:30:06.470Z,93.30
2019-01-22T12:32:54.364Z,93.20
2019-01-22T12:35:42.525Z,93.20
2019-01-22T12:38:30.413Z,93.20
2019-01-22T12:41:18.325Z,93.40
2019-01-22T12:44:06.217Z,93.60
2019-01-22T12:46:54.145Z,93.60
2019-01-22T12:49:42.096Z,93.50
2019-01-22T12:52:30.050Z,93.60
2019-01-22T12:55:17.938Z,93.70
2019-01-22T12:58:05.850Z,93.70
2019-01-22T13:00:53.742Z,93.40
2019-01-22T13:03:41.653Z,93.40
2019-01-22T13:06:29.549Z,93.40
2019-01-22T13:09:17.461Z,93.20
2019-01-22T13:12:05.439Z,93.00
2019-01-22T13:14:53.357Z,92.90
2019-01-22T13:17:41.249Z,93.00
2019-01-22T13:20:29.169Z,92.90
2019-01-22T13:23:08.293Z,92.90
2019-01-22T13:25:56.209Z,93.30
2019-01-22T13:28:44.876Z,93.00
2019-01-22T13:31:32.793Z,93.40
2019-01-22T13:34:20.682Z,93.30
2019-01-22T13:37:08.612Z,93.70
2019-01-22T13:39:56.505Z,93.60
2019-01-22T13:42:44.431Z,93.20
2019-01-22T13:45:32.318Z,93.10
2019-01-22T13:48:21.414Z,93.10
2019-01-22T13:51:09.314Z,93.10
2019-01-22T13:53:57.234Z,93.10
2019-01-22T13:56:45.129Z,93.00
2019-01-22T13:59:33.054Z,92.50
2019-01-22T14:02:20.941Z,92.70
2019-01-22T14:05:08.853Z,92.70
2019-01-22T14:07:56.746Z,93.00
2019-01-22T14:10:44.658Z,93.10
2019-01-22T14:13:32.587Z,93.10
2019-01-22T14:16:20.502Z,93.30
2019-01-22T14:19:08.642Z,93.20
2019-01-22T14:21:56.558Z,93.10
2019-01-22T14:24:37.098Z,93.20
2019-01-22T14:27:15.562Z,93.00
2019-01-22T14:30:03.625Z,93.10
2019-01-22T14:32:51.876Z,93.00
2019-01-22T14:35:39.777Z,93.00
2019-01-22T14:38:27.698Z,92.90
2019-01-22T14:41:15.586Z,93.10
2019-01-22T14:44:23.930Z,93.30
2019-01-22T14:47:11.824Z,93.10
2019-01-22T14:49:59.738Z,93.30
2019-01-22T14:52:47.634Z,93.10
2019-01-22T14:55:35.550Z,93.10
2019-01-22T14:58:23.462Z,93.00
2019-01-22T15:04:05.655Z,93.00
2019-01-22T15:06:53.582Z,93.00
2019-01-22T15:09:41.478Z,93.10
2019-01-22T15:12:29.402Z,93.50
2019-01-22T15:15:17.697Z,93.50
2019-01-22T15:18:05.594Z,93.50
2019-01-22T15:20:53.754Z,93.50
2019-01-22T15:23:34.483Z,93.40
2019-01-22T15:26:13.386Z,93.30
2019-01-22T15:29:01.309Z,93.20
2019-01-22T15:34:56.524Z,93.00
2019-01-22T15:37:44.414Z,93.40
2019-01-22T15:40:32.769Z,93.60
2019-01-22T15:43:20.910Z,93.70
2019-01-22T15:46:08.809Z,93.70
2019-01-22T15:48:56.708Z,93.60
2019-01-22T15:51:44.870Z,93.60
2019-01-22T15:54:32.811Z,93.60
2019-01-22T15:57:20.721Z,93.60
2019-01-22T16:00:09.821Z,93.70
2019-01-22T16:02:57.747Z,93.70
2019-01-22T16:05:45.893Z,93.80
2019-01-22T16:08:33.818Z,93.80
2019-01-22T16:11:21.707Z,93.60
2019-01-22T16:14:09.627Z,93.50
2019-01-22T16:16:57.524Z,93.60
2019-01-22T16:19:45.672Z,93.60
2019-01-22T16:22:33.567Z,93.60
2019-01-22T16:25:21.557Z,94.00
2019-01-22T16:28:02.561Z,93.90
2019-01-22T16:30:41.525Z,93.90
2019-01-22T16:33:29.652Z,94.10
2019-01-22T16:36:17.554Z,94.20
2019-01-22T16:39:07.007Z,94.30
2019-01-22T16:41:54.918Z,94.30
2019-01-22T16:44:42.812Z,94.20
2019-01-22T16:47:31.183Z,94.40
2019-01-22T16:50:19.400Z,94.30
2019-01-22T16:53:08.871Z,94.40
2019-01-22T16:55:56.761Z,94.40
2019-01-22T16:58:44.797Z,94.40
2019-01-22T17:01:32.965Z,94.60
2019-01-22T17:04:20.890Z,94.60
2019-01-22T17:07:10.248Z,94.70
2019-01-22T17:09:58.929Z,94.50
2019-01-22T17:12:47.912Z,94.50
2019-01-22T17:15:35.938Z,94.50
2019-01-22T17:18:23.854Z,94.60
2019-01-22T17:21:11.801Z,94.60
2019-01-22T17:23:59.847Z,94.60
2019-01-22T17:26:50.011Z,94.50
2019-01-22T17:32:31.433Z,94.60
2019-01-22T17:35:19.743Z,94.50
2019-01-22T17:38:07.671Z,94.50
2019-01-22T17:40:55.621Z,94.50
2019-01-22T17:43:43.847Z,94.50
2019-01-22T17:46:31.742Z,94.60
2019-01-22T17:49:19.678Z,94.60
2019-01-22T17:52:07.569Z,94.70
2019-01-22T17:54:55.628Z,94.60
2019-01-22T17:57:43.557Z,94.80
2019-01-22T18:03:27.097Z,94.70
2019-01-22T18:06:15.224Z,94.60
2019-01-22T18:12:12.938Z,94.30
2019-01-22T18:18:08.218Z,94.00
2019-01-22T18:20:56.207Z,94.00
2019-01-22T18:23:44.367Z,94.10
2019-01-22T18:26:32.404Z,94.10
2019-01-22T18:29:13.026Z,94.30
2019-01-22T18:31:53.910Z,94.40
2019-01-22T18:34:32.957Z,94.30
2019-01-22T18:37:21.011Z,94.20
2019-01-22T18:43:02.791Z,94.10
2019-01-22T18:45:50.760Z,94.10
2019-01-22T18:48:38.722Z,94.00
2019-01-22T18:51:27.295Z,93.90
2019-01-22T18:54:35.322Z,94.20
2019-01-22T18:57:27.474Z,94.30
2019-01-22T19:00:14.473Z,94.30
2019-01-22T19:03:02.381Z,94.30
2019-01-22T19:05:50.289Z,94.20
2019-01-22T19:11:31.982Z,94.20
2019-01-22T19:14:19.909Z,94.20
2019-01-22T19:17:07.802Z,94.10
2019-01-22T19:19:55.730Z,93.90
2019-01-22T19:22:43.618Z,93.90
2019-01-22T19:25:31.530Z,93.90
2019-01-22T19:28:19.422Z,93.90
2019-01-22T19:30:58.082Z,93.90
2019-01-22T19:36:53.025Z,93.60
2019-01-22T19:39:40.913Z,93.60
2019-01-22T19:42:28.829Z,93.40
2019-01-22T19:45:17.839Z,93.20
2019-01-22T19:48:05.951Z,93.30
2019-01-22T19:50:53.840Z,93.40
2019-01-22T19:53:41.774Z,93.40
2019-01-22T19:56:29.678Z,93.50
2019-01-22T19:59:17.597Z,93.50
2019-01-22T20:02:05.494Z,93.40
2019-01-22T20:04:53.419Z,93.40
2019-01-22T20:07:41.329Z,93.40
2019-01-22T20:10:29.247Z,93.30
2019-01-22T20:13:17.147Z,93.30
2019-01-22T20:16:05.070Z,93.30
2019-01-22T20:18:52.968Z,93.30
2019-01-22T20:21:40.889Z,93.20
2019-01-22T20:24:28.793Z,93.20
2019-01-22T20:27:16.713Z,93.40
2019-01-22T20:33:24.079Z,93.30
2019-01-22T20:36:11.969Z,93.30
2019-01-22T20:38:59.899Z,93.40
2019-01-22T20:41:47.788Z,93.40
2019-01-22T20:47:29.180Z,93.60
2019-01-22T20:50:19.352Z,93.60
2019-01-22T20:53:07.050Z,93.40
2019-01-22T20:55:54.966Z,93.40
2019-01-22T20:58:42.871Z,93.20
2019-01-22T21:01:30.810Z,93.10
2019-01-22T21:07:25.749Z,93.30
2019-01-22T21:10:15.541Z,93.40
2019-01-22T21:15:56.793Z,93.50
2019-01-22T21:18:44.713Z,93.40
2019-01-22T21:21:32.614Z,93.30
2019-01-22T21:27:14.043Z,93.70
2019-01-22T21:30:01.930Z,93.70
2019-01-22T21:32:49.878Z,93.50
2019-01-22T21:35:28.341Z,93.60
2019-01-22T21:38:16.263Z,93.50
2019-01-22T21:41:04.160Z,93.50
2019-01-22T21:43:52.077Z,93.60
2019-01-22T21:46:39.982Z,93.60
2019-01-22T21:49:27.917Z,93.60
2019-01-22T21:52:15.810Z,93.90
2019-01-22T21:57:57.989Z,94.00
2019-01-22T22:00:45.921Z,94.10
2019-01-22T22:03:33.816Z,94.20
2019-01-22T22:06:02.568Z,94.50
2019-01-22T22:08:50.458Z,94.60
2019-01-22T22:14:32.232Z,94.60
2019-01-22T22:17:20.152Z,94.60
2019-01-22T22:26:10.089Z,94.60
2019-01-22T22:28:58.010Z,94.30
2019-01-22T22:31:45.905Z,94.20
2019-01-22T22:34:33.830Z,94.30
2019-01-22T22:37:14.174Z,94.20
2019-01-22T22:39:52.802Z,94.00
2019-01-22T22:42:40.695Z,94.20
2019-01-22T22:45:28.613Z,94.30
2019-01-22T22:48:16.509Z,94.20
2019-01-22T22:51:04.427Z,94.30
2019-01-22T22:53:52.317Z,94.40
2019-01-22T22:56:40.242Z,94.30
2019-01-22T22:59:28.138Z,94.30
